Time;durP1;ratioP1;P1;durP2;ratioP2;P2;SDS_P1;SDS_P2;PMS_P1;PMS_P2;Temp;Humidity;BMP_temperature;BMP_pressure;BME280_temperature;BME280_humidity;BME280_pressure;Samples;Min_cycle;Max_cycle;Signal;HPM_P1;HPM_P2
2023/06/02 00:02:09;;;;;;;;;;;;;;;16.52;100.00;95411.81;10348034;28;1910;-70
2023/06/02 00:07:12;;;;;;;;;;;;;;;16.39;100.00;95411.66;10351318;28;1947;-70
2023/06/02 00:12:15;;;;;;;;;;;;;;;16.42;100.00;95418.38;10345113;28;1918;-70
2023/06/02 00:17:19;;;;;;;;;;;;;;;16.49;100.00;95411.34;10345047;28;2037;-70
2023/06/02 00:22:29;;;;;;;;;;;;;;;16.35;100.00;95415.31;10349670;28;1964;-70
2023/06/02 00:27:31;;;;;;;;;;;;;;;16.23;100.00;95421.41;10351423;28;4451;-70
2023/06/02 00:32:34;;;;;;;;;;;;;;;16.32;100.00;95411.34;10352453;28;2284;-70
2023/06/02 00:37:36;;;;;;;;;;;;;;;16.42;100.00;95421.09;10345452;28;2134;-70
2023/06/02 00:42:39;;;;;;;;;;;;;;;16.38;100.00;95420.13;10345962;28;1930;-70
2023/06/02 00:47:42;;;;;;;;;;;;;;;16.39;100.00;95416.28;10348301;28;1928;-69
2023/06/02 00:52:44;;;;;;;;;;;;;;;16.42;100.00;95412.97;10341010;28;2358;-71
2023/06/02 00:57:48;;;;;;;;;;;;;;;16.32;100.00;95405.94;10347209;28;1973;-68
2023/06/02 01:02:51;;;;;;;;;;;;;;;16.30;100.00;95407.38;10344869;28;1906;-69
2023/06/02 01:07:54;;;;;;;;;;;;;;;16.36;100.00;95406.91;10338700;28;1977;-69
2023/06/02 01:12:56;;;;;;;;;;;;;;;16.18;100.00;95408.78;10341935;28;2314;-69
2023/06/02 01:17:59;;;;;;;;;;;;;;;16.15;100.00;95404.00;10342150;28;1970;-69
2023/06/02 01:23:04;;;;;;;;;;;;;;;16.00;100.00;95404.47;10344156;28;2046;-70
2023/06/02 01:28:06;;;;;;;;;;;;;;;16.11;100.00;95399.53;10342109;28;4384;-70
2023/06/02 01:33:09;;;;;;;;;;;;;;;16.00;100.00;95395.53;10347562;28;2002;-70
2023/06/02 01:38:12;;;;;;;;;;;;;;;15.79;100.00;95403.47;10343647;28;1974;-69
2023/06/02 01:43:14;;;;;;;;;;;;;;;15.75;100.00;95399.78;10343810;28;1954;-71
2023/06/02 01:48:17;;;;;;;;;;;;;;;15.63;100.00;95400.38;10345265;28;1990;-70
2023/06/02 01:53:20;;;;;;;;;;;;;;;15.49;100.00;95403.19;10343921;28;2244;-71
2023/06/02 01:58:22;;;;;;;;;;;;;;;15.66;100.00;95395.16;10341591;28;2272;-71
2023/06/02 02:03:25;;;;;;;;;;;;;;;15.64;100.00;95397.34;10343708;28;2046;-71
2023/06/02 02:08:27;;;;;;;;;;;;;;;15.59;100.00;95394.78;10341242;28;1991;-70
2023/06/02 02:13:29;;;;;;;;;;;;;;;15.35;100.00;95399.78;10336905;28;1994;-70
2023/06/02 02:18:32;;;;;;;;;;;;;;;15.20;100.00;95392.88;10346890;28;2030;-70
2023/06/02 02:23:34;;;;;;;;;;;;;;;15.18;100.00;95394.28;10340400;28;2062;-70
2023/06/02 02:28:37;;;;;;;;;;;;;;;15.08;100.00;95401.59;10343621;28;4417;-71
2023/06/02 02:33:39;;;;;;;;;;;;;;;14.92;100.00;95402.28;10341916;28;1970;-70
2023/06/02 02:38:42;;;;;;;;;;;;;;;15.04;100.00;95400.59;10340661;28;2288;-70
2023/06/02 02:43:44;;;;;;;;;;;;;;;15.07;100.00;95396.47;10340790;28;2018;-70
2023/06/02 02:48:47;;;;;;;;;;;;;;;15.00;100.00;95396.91;10341999;28;2383;-70
2023/06/02 02:53:49;;;;;;;;;;;;;;;14.99;100.00;95389.91;10344820;28;2002;-70
2023/06/02 02:58:52;;;;;;;;;;;;;;;14.95;100.00;95391.66;10340414;28;1942;-68
2023/06/02 03:03:56;;;;;;;;;;;;;;;14.95;100.00;95386.25;10346994;28;2250;-71
2023/06/02 03:08:59;;;;;;;;;;;;;;;14.93;100.00;95391.16;10348071;28;2048;-71
2023/06/02 03:14:02;;;;;;;;;;;;;;;14.82;100.00;95387.09;10344297;28;2145;-71
2023/06/02 03:19:05;;;;;;;;;;;;;;;14.76;100.00;95388.31;10350577;28;2186;-69
2023/06/02 03:24:07;;;;;;;;;;;;;;;14.70;100.00;95398.50;10348496;28;1946;-71
2023/06/02 03:29:10;;;;;;;;;;;;;;;14.76;100.00;95399.16;10348645;28;4399;-70
2023/06/02 03:34:13;;;;;;;;;;;;;;;14.73;100.00;95395.16;10351882;28;1997;-70
2023/06/02 03:39:16;;;;;;;;;;;;;;;14.67;100.00;95395.59;10351632;28;1994;-68
2023/06/02 03:44:18;;;;;;;;;;;;;;;14.88;100.00;95405.59;10350758;28;2392;-70
2023/06/02 03:49:21;;;;;;;;;;;;;;;14.86;100.00;95407.03;10349011;28;1933;-71
2023/06/02 03:54:23;;;;;;;;;;;;;;;15.09;100.00;95414.00;10348461;28;2048;-69
2023/06/02 03:59:26;;;;;;;;;;;;;;;15.25;100.00;95410.88;10346199;28;2187;-70
2023/06/02 04:04:29;;;;;;;;;;;;;;;15.30;100.00;95410.75;10346815;28;1966;-70
2023/06/02 04:09:32;;;;;;;;;;;;;;;15.43;100.00;95423.41;10347147;28;1962;-70
2023/06/02 04:14:35;;;;;;;;;;;;;;;15.82;100.00;95427.22;10344247;28;2092;-70
2023/06/02 04:19:38;;;;;;;;;;;;;;;15.96;100.00;95425.16;10349324;28;2124;-70
2023/06/02 04:24:41;;;;;;;;;;;;;;;15.97;100.00;95429.50;10347216;28;1958;-70
2023/06/02 04:29:43;;;;;;;;;;;;;;;16.15;100.00;95428.41;10348133;28;1983;-70
2023/06/02 04:34:46;;;;;;;;;;;;;;;16.48;100.00;95430.69;10348282;28;1961;-69
2023/06/02 04:39:50;;;;;;;;;;;;;;;16.44;100.00;95430.50;10347428;28;1983;-69
2023/06/02 04:44:53;;;;;;;;;;;;;;;16.63;100.00;95438.31;10340197;28;1973;-69
2023/06/02 04:49:56;;;;;;;;;;;;;;;16.99;100.00;95434.50;10345232;28;1992;-68
2023/06/02 04:54:59;;;;;;;;;;;;;;;17.19;100.00;95436.53;10349174;28;1989;-70
2023/06/02 05:00:03;;;;;;;;;;;;;;;17.49;100.00;95431.13;10347920;28;2021;-70
2023/06/02 05:05:06;;;;;;;;;;;;;;;17.61;100.00;95428.53;10349341;28;1935;-70
2023/06/02 05:10:08;;;;;;;;;;;;;;;17.68;100.00;95434.25;10353157;28;1871;-69
2023/06/02 05:15:11;;;;;;;;;;;;;;;18.00;100.00;95434.75;10343805;28;1930;-71
2023/06/02 05:20:13;;;;;;;;;;;;;;;17.95;100.00;95434.97;10343563;28;2022;-70
2023/06/02 05:25:16;;;;;;;;;;;;;;;18.25;100.00;95441.97;10342185;28;1978;-70
2023/06/02 05:30:18;;;;;;;;;;;;;;;18.47;100.00;95431.91;10342461;28;4409;-71
2023/06/02 05:35:21;;;;;;;;;;;;;;;18.47;100.00;95431.91;10340700;28;2503;-70
2023/06/02 05:40:23;;;;;;;;;;;;;;;18.98;100.00;95440.78;10335486;28;2111;-70
2023/06/02 05:45:26;;;;;;;;;;;;;;;19.22;100.00;95435.44;10343847;28;1878;-73
2023/06/02 05:50:28;;;;;;;;;;;;;;;19.41;100.00;95441.16;10343627;28;1985;-75
2023/06/02 05:55:30;;;;;;;;;;;;;;;19.44;100.00;95443.19;10338040;28;1982;-74
2023/06/02 06:00:33;;;;;;;;;;;;;;;19.94;100.00;95439.41;10340930;28;1973;-71
2023/06/02 06:05:36;;;;;;;;;;;;;;;20.18;100.00;95451.44;10349129;28;1919;-72
2023/06/02 06:10:42;;;;;;;;;;;;;;;20.07;100.00;95451.09;10338165;28;1843;-73
2023/06/02 06:15:47;;;;;;;;;;;;;;;20.20;99.84;95452.69;10344100;28;2203;-72
2023/06/02 06:20:50;;;;;;;;;;;;;;;19.78;100.00;95456.78;10340477;28;1886;-71
2023/06/02 06:25:52;;;;;;;;;;;;;;;19.81;100.00;95456.91;10345693;28;1913;-73
2023/06/02 06:30:54;;;;;;;;;;;;;;;19.88;99.56;95459.06;10341048;28;4381;-73
2023/06/02 06:35:57;;;;;;;;;;;;;;;19.79;100.00;95464.63;10341403;28;1975;-72
2023/06/02 06:40:59;;;;;;;;;;;;;;;20.23;98.03;95453.91;10329477;28;2154;-72
2023/06/02 06:46:02;;;;;;;;;;;;;;;20.73;93.29;95469.09;10336855;28;1952;-73
2023/06/02 06:51:05;;;;;;;;;;;;;;;20.85;91.22;95471.81;10340594;28;1859;-72
2023/06/02 06:56:07;;;;;;;;;;;;;;;20.92;89.89;95474.72;10335283;28;1963;-72
2023/06/02 07:01:10;;;;;;;;;;;;;;;21.22;92.12;95468.94;10342527;28;1884;-73
2023/06/02 07:06:12;;;;;;;;;;;;;;;21.13;88.94;95481.97;10338839;28;1960;-74
2023/06/02 07:11:15;;;;;;;;;;;;;;;21.34;84.42;95471.63;10338169;28;2359;-73
2023/06/02 07:16:19;;;;;;;;;;;;;;;21.61;79.46;95472.72;10339184;28;1966;-73
2023/06/02 07:21:21;;;;;;;;;;;;;;;21.06;83.18;95477.09;10339133;28;1951;-72
2023/06/02 07:26:24;;;;;;;;;;;;;;;22.11;73.95;95476.75;10339872;28;4425;-72
2023/06/02 07:31:26;;;;;;;;;;;;;;;21.73;76.44;95477.34;10341903;28;1864;-71
2023/06/02 07:36:28;;;;;;;;;;;;;;;22.33;76.46;95467.06;10342539;28;1984;-73
2023/06/02 07:41:31;;;;;;;;;;;;;;;21.89;72.80;95475.41;10341004;28;1915;-73
2023/06/02 07:46:33;;;;;;;;;;;;;;;21.65;75.55;95479.09;10340024;28;1976;-73
2023/06/02 07:51:36;;;;;;;;;;;;;;;21.96;74.55;95472.06;10340876;28;1907;-72
2023/06/02 07:56:38;;;;;;;;;;;;;;;22.13;73.99;95480.72;10337961;28;1895;-72
2023/06/02 08:01:40;;;;;;;;;;;;;;;22.29;75.15;95460.75;10341792;28;2015;-70
2023/06/02 08:06:43;;;;;;;;;;;;;;;21.96;70.24;95474.78;10345629;28;1866;-70
2023/06/02 08:11:45;;;;;;;;;;;;;;;22.02;73.42;95473.38;10344367;28;1855;-70
2023/06/02 08:16:50;;;;;;;;;;;;;;;22.77;72.10;95464.13;10342117;28;1911;-71
2023/06/02 08:22:00;;;;;;;;;;;;;;;22.66;72.73;95463.94;10345779;28;1942;-70
2023/06/02 08:27:03;;;;;;;;;;;;;;;21.89;73.81;95472.69;10344575;28;4368;-70
2023/06/02 08:32:05;;;;;;;;;;;;;;;22.08;75.69;95466.50;10343319;28;1971;-69
2023/06/02 08:37:16;;;;;;;;;;;;;;;22.74;72.75;95460.19;10346628;28;1918;-71
2023/06/02 08:42:18;;;;;;;;;;;;;;;22.90;73.14;95457.41;10342794;28;2004;-71
2023/06/02 08:47:21;;;;;;;;;;;;;;;23.14;70.06;95456.31;10343868;28;1863;-69
2023/06/02 08:52:23;;;;;;;;;;;;;;;23.33;72.83;95466.47;10346111;28;2211;-66
2023/06/02 08:57:26;;;;;;;;;;;;;;;23.49;69.77;95455.44;10343403;28;2057;-69
2023/06/02 09:02:28;;;;;;;;;;;;;;;22.92;72.37;95471.56;10343131;28;1886;-70
2023/06/02 09:07:30;;;;;;;;;;;;;;;23.24;67.64;95471.41;10342214;28;1891;-69
2023/06/02 09:12:33;;;;;;;;;;;;;;;22.84;67.44;95476.06;10340823;28;1793;-70
2023/06/02 09:17:35;;;;;;;;;;;;;;;23.24;71.10;95476.88;10344494;28;1938;-70
2023/06/02 09:22:37;;;;;;;;;;;;;;;23.18;67.76;95470.91;10344961;28;2363;-71
2023/06/02 09:27:46;;;;;;;;;;;;;;;22.85;73.76;95466.69;10341479;28;4494;-71
2023/06/02 09:32:49;;;;;;;;;;;;;;;23.52;70.46;95485.66;10338389;28;1908;-71
2023/06/02 09:37:52;;;;;;;;;;;;;;;23.15;68.90;95468.88;10343568;28;1926;-71
2023/06/02 09:42:55;;;;;;;;;;;;;;;22.84;68.89;95476.06;10338945;28;1984;-70
2023/06/02 09:47:57;;;;;;;;;;;;;;;23.40;66.26;95474.84;10340919;28;1990;-69
2023/06/02 09:53:00;;;;;;;;;;;;;;;23.15;64.56;95477.88;10339261;28;1907;-69
2023/06/02 09:58:03;;;;;;;;;;;;;;;23.11;68.30;95477.03;10339999;28;1956;-69
2023/06/02 10:03:06;;;;;;;;;;;;;;;23.85;70.29;95470.59;10340920;28;1836;-69
2023/06/02 10:08:08;;;;;;;;;;;;;;;23.42;62.32;95478.81;10341907;28;1898;-70
2023/06/02 10:13:11;;;;;;;;;;;;;;;23.32;61.34;95484.09;10340226;28;1886;-72
2023/06/02 10:18:14;;;;;;;;;;;;;;;23.51;59.28;95464.88;10337862;28;2230;-69
2023/06/02 10:23:17;;;;;;;;;;;;;;;23.75;63.01;95463.75;10333129;28;2351;-69
2023/06/02 10:28:19;;;;;;;;;;;;;;;24.16;56.43;95459.34;10339652;28;1992;-70
2023/06/02 10:33:22;;;;;;;;;;;;;;;23.97;53.88;95459.41;10335507;28;1946;-70
2023/06/02 10:38:24;;;;;;;;;;;;;;;24.72;51.63;95455.88;10335821;28;2084;-70
2023/06/02 10:46:26;;;;;;;;;;;;;;;26.64;43.93;95453.50;10533660;27;1874;-71
2023/06/02 10:51:29;;;;;;;;;;;;;;;25.90;42.24;95434.44;10502821;28;1905;-71
2023/06/02 10:56:31;;;;;;;;;;;;;;;26.31;40.90;95432.38;10500315;28;1824;-71
2023/06/02 11:01:34;;;;;;;;;;;;;;;25.91;41.77;95458.06;10503382;28;1993;-69
2023/06/02 11:06:37;;;;;;;;;;;;;;;25.80;42.39;95446.94;10479283;28;1808;-69
2023/06/02 11:11:40;;;;;;;;;;;;;;;26.50;40.40;95434.13;10496180;28;1983;-66
2023/06/02 11:16:42;;;;;;;;;;;;;;;27.01;41.39;95424.94;10497176;28;1811;-67
2023/06/02 11:21:45;;;;;;;;;;;;;;;26.54;40.46;95423.91;10489337;28;1914;-69
2023/06/02 11:26:47;;;;;;;;;;;;;;;25.59;43.08;95426.28;10493215;28;4277;-68
2023/06/02 11:31:50;;;;;;;;;;;;;;;26.04;43.46;95429.03;10489549;28;1820;-69
2023/06/02 11:36:53;;;;;;;;;;;;;;;25.58;41.95;95426.66;10491009;28;1890;-69
2023/06/02 11:41:55;;;;;;;;;;;;;;;25.82;42.74;95409.56;10499077;28;1990;-69
2023/06/02 11:46:58;;;;;;;;;;;;;;;26.25;41.34;95409.91;10537367;28;1838;-69
2023/06/02 11:52:01;;;;;;;;;;;;;;;25.85;39.16;95408.84;10531906;28;1963;-69
2023/06/02 11:57:03;;;;;;;;;;;;;;;26.11;39.71;95405.09;10508230;28;1894;-70
2023/06/02 12:02:06;;;;;;;;;;;;;;;25.84;39.20;95403.72;10506788;28;1986;-72
2023/06/02 12:07:08;;;;;;;;;;;;;;;25.58;38.50;95418.41;10506303;28;1892;-69
2023/06/02 12:12:11;;;;;;;;;;;;;;;25.12;39.55;95407.69;10507888;28;2333;-69
2023/06/02 12:17:13;;;;;;;;;;;;;;;25.56;39.63;95399.50;10501703;28;1789;-69
2023/06/02 12:22:17;;;;;;;;;;;;;;;26.37;38.63;95403.31;10501913;28;1963;-69
2023/06/02 12:27:20;;;;;;;;;;;;;;;26.32;37.21;95398.94;10505215;28;4367;-73
2023/06/02 12:32:25;;;;;;;;;;;;;;;25.44;41.15;95408.00;10501190;28;1836;-70
2023/06/02 12:37:27;;;;;;;;;;;;;;;26.11;39.47;95402.34;10504094;28;1883;-68
2023/06/02 12:42:29;;;;;;;;;;;;;;;26.16;38.44;95403.97;10501941;28;1983;-68
2023/06/02 12:47:33;;;;;;;;;;;;;;;26.92;37.13;95400.47;10503478;28;1918;-66
2023/06/02 12:52:36;;;;;;;;;;;;;;;26.22;37.50;95391.41;10501022;28;1768;-69
2023/06/02 12:57:38;;;;;;;;;;;;;;;26.89;37.48;95387.44;10505333;28;2371;-68
2023/06/02 13:02:42;;;;;;;;;;;;;;;26.42;37.79;95391.16;10504997;28;1919;-68
2023/06/02 13:07:46;;;;;;;;;;;;;;;26.60;38.02;95372.75;10504023;28;2456;-68
2023/06/02 13:12:49;;;;;;;;;;;;;;;26.53;36.84;95383.72;10504026;28;1887;-69
2023/06/02 13:17:51;;;;;;;;;;;;;;;26.79;35.97;95377.19;10505144;28;1899;-69
2023/06/02 13:22:55;;;;;;;;;;;;;;;26.31;36.74;95380.03;10504549;28;1951;-68
2023/06/02 13:27:57;;;;;;;;;;;;;;;25.87;37.87;95381.69;10503044;28;4339;-68
2023/06/02 13:32:59;;;;;;;;;;;;;;;26.41;37.78;95376.59;10500309;28;1970;-68
2023/06/02 13:38:02;;;;;;;;;;;;;;;26.19;37.81;95370.13;10505837;28;1934;-68
2023/06/02 13:43:04;;;;;;;;;;;;;;;26.37;37.80;95371.03;10497577;28;1965;-69
2023/06/02 13:48:08;;;;;;;;;;;;;;;25.97;39.17;95373.91;10499037;28;2126;-68
2023/06/02 13:53:11;;;;;;;;;;;;;;;26.17;37.75;95366.97;10501776;28;1868;-70
2023/06/02 13:58:13;;;;;;;;;;;;;;;26.21;37.70;95366.97;10506077;28;1871;-69
2023/06/02 14:03:16;;;;;;;;;;;;;;;26.32;37.80;95365.88;10497578;28;2013;-69
2023/06/02 14:08:18;;;;;;;;;;;;;;;26.06;37.54;95366.09;10502651;28;1824;-70
2023/06/02 14:13:21;;;;;;;;;;;;;;;25.71;36.89;95367.41;10500812;28;1978;-69
2023/06/02 14:18:23;;;;;;;;;;;;;;;25.96;36.49;95372.31;10502515;28;1873;-69
2023/06/02 14:23:25;;;;;;;;;;;;;;;25.61;37.36;95368.09;10500368;28;2099;-68
2023/06/02 14:28:28;;;;;;;;;;;;;;;25.78;41.12;95372.97;10500630;28;4312;-70
2023/06/02 14:33:30;;;;;;;;;;;;;;;26.11;39.60;95363.00;10499246;28;1863;-69
2023/06/02 14:38:33;;;;;;;;;;;;;;;25.65;38.33;95360.66;10500842;28;1913;-69
2023/06/02 14:43:35;;;;;;;;;;;;;;;25.80;39.12;95369.84;10503933;28;1950;-72
2023/06/02 14:48:37;;;;;;;;;;;;;;;25.96;39.64;95372.31;10505612;28;1903;-71
2023/06/02 14:53:40;;;;;;;;;;;;;;;25.86;39.74;95360.06;10504679;28;1914;-71
2023/06/02 14:58:42;;;;;;;;;;;;;;;25.66;40.41;95367.75;10503792;28;2713;-70
2023/06/02 15:03:45;;;;;;;;;;;;;;;25.37;41.61;95352.13;10506240;28;1910;-70
2023/06/02 15:08:47;;;;;;;;;;;;;;;25.81;40.27;95357.66;10500219;28;1970;-70
2023/06/02 15:13:50;;;;;;;;;;;;;;;26.09;40.43;95348.81;10518268;28;1880;-70
2023/06/02 15:18:54;;;;;;;;;;;;;;;25.64;40.43;95355.50;10503514;28;1887;-70
2023/06/02 15:23:59;;;;;;;;;;;;;;;25.44;41.40;95352.19;10506114;28;1980;-71
2023/06/02 15:29:03;;;;;;;;;;;;;;;24.80;42.68;95350.34;10502113;28;4491;-69
2023/06/02 15:34:05;;;;;;;;;;;;;;;24.89;43.00;95365.78;10508980;28;1891;-70
2023/06/02 15:39:08;;;;;;;;;;;;;;;25.18;43.68;95356.66;10509258;28;2167;-70
2023/06/02 15:44:10;;;;;;;;;;;;;;;25.13;43.48;95362.53;10508307;28;1975;-70
2023/06/02 15:49:12;;;;;;;;;;;;;;;24.36;44.51;95363.13;10510615;28;1868;-70
2023/06/02 15:54:15;;;;;;;;;;;;;;;24.28;46.01;95357.50;10508042;28;2313;-70
2023/06/02 15:59:17;;;;;;;;;;;;;;;24.20;46.45;95353.09;10511036;28;1895;-69
2023/06/02 16:04:20;;;;;;;;;;;;;;;24.35;47.22;95356.84;10511011;28;1917;-71
2023/06/02 16:09:22;;;;;;;;;;;;;;;23.64;48.59;95353.03;10513231;28;1827;-69
2023/06/02 16:14:25;;;;;;;;;;;;;;;23.40;50.26;95354.16;10510316;28;1930;-70
2023/06/02 16:19:27;;;;;;;;;;;;;;;23.39;49.07;95355.31;10508107;28;1859;-69
2023/06/02 16:24:29;;;;;;;;;;;;;;;23.34;49.61;95356.41;10511931;28;1979;-70
2023/06/02 16:29:32;;;;;;;;;;;;;;;23.12;49.75;95366.22;10508534;28;4423;-69
2023/06/02 16:34:34;;;;;;;;;;;;;;;23.39;50.05;95364.34;10515000;28;1886;-70
2023/06/02 16:39:36;;;;;;;;;;;;;;;23.32;49.45;95358.72;10511259;28;1920;-70
2023/06/02 16:44:39;;;;;;;;;;;;;;;22.81;47.63;95371.84;10504166;28;1977;-70
2023/06/02 16:49:41;;;;;;;;;;;;;;;22.74;47.29;95361.53;10506990;28;2282;-70
2023/06/02 16:54:44;;;;;;;;;;;;;;;22.64;46.62;95365.66;10506443;28;1920;-70
2023/06/02 16:59:46;;;;;;;;;;;;;;;22.67;46.40;95353.97;10507001;28;3747;-70
2023/06/02 17:04:49;;;;;;;;;;;;;;;22.47;44.94;95366.09;10507450;28;1891;-71
2023/06/02 17:09:51;;;;;;;;;;;;;;;22.52;44.80;95370.47;10507198;28;2138;-69
2023/06/02 17:14:54;;;;;;;;;;;;;;;22.34;44.33;95364.63;10503619;28;1879;-69
2023/06/02 17:19:57;;;;;;;;;;;;;;;22.19;43.25;95369.00;10506729;28;1871;-69
2023/06/02 17:24:59;;;;;;;;;;;;;;;22.05;43.29;95380.41;10506617;28;1973;-69
2023/06/02 17:30:02;;;;;;;;;;;;;;;22.01;43.50;95374.06;10511008;28;4387;-69
2023/06/02 17:35:06;;;;;;;;;;;;;;;21.95;43.01;95380.97;10505230;28;1942;-69
2023/06/02 17:40:09;;;;;;;;;;;;;;;21.89;42.82;95382.38;10512575;28;1892;-77
2023/06/02 17:45:11;;;;;;;;;;;;;;;21.86;42.08;95388.53;10501747;28;2314;-76
2023/06/02 17:50:13;;;;;;;;;;;;;;;21.72;42.00;95388.22;10502144;28;1910;-76
2023/06/02 17:55:17;;;;;;;;;;;;;;;21.69;42.39;95395.16;10514869;28;1926;-76
2023/06/02 18:00:22;;;;;;;;;;;;;;;21.63;42.56;95395.78;10501709;28;1917;-76
2023/06/02 18:05:24;;;;;;;;;;;;;;;21.49;41.60;95418.13;10505171;28;1959;-76
2023/06/02 18:10:27;;;;;;;;;;;;;;;21.43;41.83;95414.84;10504204;28;1878;-76
2023/06/02 18:15:29;;;;;;;;;;;;;;;21.32;41.60;95408.31;10500141;28;2111;-74
2023/06/02 18:20:33;;;;;;;;;;;;;;;21.20;42.23;95411.09;10499933;28;1836;-74
2023/06/02 18:25:35;;;;;;;;;;;;;;;21.01;43.19;95418.00;10506868;28;1965;-74
2023/06/02 18:30:37;;;;;;;;;;;;;;;20.86;44.25;95418.75;10510572;28;4419;-75
2023/06/02 18:35:40;;;;;;;;;;;;;;;20.70;45.43;95423.38;10500393;28;1895;-75
2023/06/02 18:40:43;;;;;;;;;;;;;;;20.56;46.38;95421.03;10514874;28;1962;-76
2023/06/02 18:45:45;;;;;;;;;;;;;;;20.37;47.53;95435.28;10508927;28;2304;-75
2023/06/02 18:50:48;;;;;;;;;;;;;;;20.19;47.98;95433.94;10509084;28;1889;-74
2023/06/02 18:55:51;;;;;;;;;;;;;;;20.06;48.41;95435.06;10504085;28;1908;-75
2023/06/02 19:00:53;;;;;;;;;;;;;;;19.87;49.01;95433.72;10512375;28;1927;-74
2023/06/02 19:05:56;;;;;;;;;;;;;;;19.68;49.90;95433.47;10509026;28;2015;-75
2023/06/02 19:10:58;;;;;;;;;;;;;;;19.53;50.50;95442.28;10516214;28;2105;-74
2023/06/02 19:16:01;;;;;;;;;;;;;;;19.32;51.93;95443.16;10517780;28;2136;-75
2023/06/02 19:21:04;;;;;;;;;;;;;;;19.22;53.28;95446.31;10508768;28;2296;-75
2023/06/02 19:26:06;;;;;;;;;;;;;;;19.10;54.41;95454.47;10515690;28;1983;-74
2023/06/02 19:31:09;;;;;;;;;;;;;;;18.92;55.91;95464.72;10513420;28;1891;-75
2023/06/02 19:36:11;;;;;;;;;;;;;;;18.80;58.03;95470.88;10517036;28;2107;-75
2023/06/02 19:41:14;;;;;;;;;;;;;;;18.70;59.36;95482.16;10509101;28;2742;-75
2023/06/02 19:46:16;;;;;;;;;;;;;;;18.54;62.29;95481.16;10512141;28;1929;-74
2023/06/02 19:51:19;;;;;;;;;;;;;;;18.42;65.02;95486.53;10508059;28;1910;-74
2023/06/02 19:56:22;;;;;;;;;;;;;;;18.34;67.82;95493.63;10508674;28;1875;-74
2023/06/02 20:01:25;;;;;;;;;;;;;;;18.19;71.91;95489.53;10513294;28;1915;-74
2023/06/02 20:06:27;;;;;;;;;;;;;;;18.03;75.85;95483.88;10513852;28;1931;-74
2023/06/02 20:11:30;;;;;;;;;;;;;;;17.93;79.71;95499.75;10514708;28;1950;-75
2023/06/02 20:16:33;;;;;;;;;;;;;;;17.87;83.28;95506.50;10505780;28;1949;-75
2023/06/02 20:21:36;;;;;;;;;;;;;;;17.72;87.28;95510.56;10510621;28;2064;-71
2023/06/02 20:26:38;;;;;;;;;;;;;;;17.73;89.72;95512.94;10506598;28;4371;-73
2023/06/02 20:31:41;;;;;;;;;;;;;;;17.77;93.17;95513.09;10515822;28;2079;-71
2023/06/02 20:36:43;;;;;;;;;;;;;;;17.68;96.87;95515.78;10517799;28;2392;-73
2023/06/02 20:41:46;;;;;;;;;;;;;;;17.67;100.00;95519.63;10514011;28;2060;-72
2023/06/02 20:46:48;;;;;;;;;;;;;;;17.58;100.00;95526.25;10507853;28;1977;-72
2023/06/02 20:51:51;;;;;;;;;;;;;;;17.47;100.00;95529.28;10509443;28;1920;-73
2023/06/02 20:56:53;;;;;;;;;;;;;;;17.32;100.00;95531.72;10509686;28;1875;-73
2023/06/02 21:01:56;;;;;;;;;;;;;;;17.12;100.00;95525.84;10507257;28;1880;-73
2023/06/02 21:06:58;;;;;;;;;;;;;;;17.05;100.00;95528.25;10512961;28;1979;-74
2023/06/02 21:12:01;;;;;;;;;;;;;;;16.87;100.00;95540.22;10511702;28;1914;-75
2023/06/02 21:17:04;;;;;;;;;;;;;;;16.70;100.00;95535.56;10510368;28;1952;-74
2023/06/02 21:22:07;;;;;;;;;;;;;;;16.58;100.00;95538.88;10515496;28;1945;-74
2023/06/02 21:27:10;;;;;;;;;;;;;;;16.44;100.00;95532.78;10504119;28;4467;-74
2023/06/02 21:32:12;;;;;;;;;;;;;;;16.36;100.00;95539.81;10489239;28;2337;-74
2023/06/02 21:37:15;;;;;;;;;;;;;;;16.22;100.00;95541.81;10510115;28;1895;-74
2023/06/02 21:42:18;;;;;;;;;;;;;;;16.10;100.00;95555.22;10510061;28;1836;-73
2023/06/02 21:47:20;;;;;;;;;;;;;;;16.05;100.00;95541.78;10506279;28;1975;-73
2023/06/02 21:52:23;;;;;;;;;;;;;;;15.99;100.00;95549.25;10505597;28;1883;-75
2023/06/02 21:57:25;;;;;;;;;;;;;;;15.94;100.00;95552.09;10505268;28;1874;-74
2023/06/02 22:02:29;;;;;;;;;;;;;;;15.95;100.00;95551.78;10517527;28;1897;-75
2023/06/02 22:07:32;;;;;;;;;;;;;;;15.87;100.00;95549.84;10507587;28;1918;-74
2023/06/02 22:12:35;;;;;;;;;;;;;;;15.75;100.00;95551.53;10508045;28;1924;-75
2023/06/02 22:17:37;;;;;;;;;;;;;;;15.67;100.00;95545.78;10508580;28;1900;-75
2023/06/02 22:22:40;;;;;;;;;;;;;;;15.59;100.00;95546.50;10497337;28;1970;-75
2023/06/02 22:27:42;;;;;;;;;;;;;;;15.49;100.00;95552.16;10509550;28;4366;-74
2023/06/02 22:32:45;;;;;;;;;;;;;;;15.42;100.00;95551.81;10511855;28;1891;-74
2023/06/02 22:37:48;;;;;;;;;;;;;;;15.30;100.00;95544.25;10503929;28;1866;-74
2023/06/02 22:42:50;;;;;;;;;;;;;;;15.22;100.00;95555.03;10511581;28;1919;-75
2023/06/02 22:47:52;;;;;;;;;;;;;;;15.11;100.00;95549.84;10504630;28;1959;-74
2023/06/02 22:52:55;;;;;;;;;;;;;;;15.05;100.00;95544.88;10506448;28;1855;-74
2023/06/02 22:57:57;;;;;;;;;;;;;;;14.92;100.00;95549.22;10505743;28;1960;-74
2023/06/02 23:02:59;;;;;;;;;;;;;;;14.84;100.00;95541.84;10507860;28;1847;-74
2023/06/02 23:08:02;;;;;;;;;;;;;;;14.74;100.00;95542.88;10504810;28;1969;-75
2023/06/02 23:13:05;;;;;;;;;;;;;;;14.75;100.00;95539.03;10510733;28;1935;-73
2023/06/02 23:18:07;;;;;;;;;;;;;;;14.62;100.00;95544.50;10502733;28;2031;-73
2023/06/02 23:23:10;;;;;;;;;;;;;;;14.51;100.00;95544.75;10505854;28;2126;-74
2023/06/02 23:28:12;;;;;;;;;;;;;;;14.42;100.00;95551.91;10509305;28;1967;-73
2023/06/02 23:33:15;;;;;;;;;;;;;;;14.36;100.00;95534.19;10509911;28;2036;-74
2023/06/02 23:38:17;;;;;;;;;;;;;;;14.32;100.00;95544.03;10497479;28;1923;-73
2023/06/02 23:43:19;;;;;;;;;;;;;;;14.24;100.00;95545.53;10503574;28;2000;-73
2023/06/02 23:48:22;;;;;;;;;;;;;;;14.22;100.00;95541.53;10506015;28;1904;-73
2023/06/02 23:53:24;;;;;;;;;;;;;;;14.09;100.00;95542.34;10511389;28;1867;-74
2023/06/02 23:58:26;;;;;;;;;;;;;;;13.99;100.00;95544.13;10514753;28;1938;-75
